Portada
METAR-TAF:

METAR-TAF

Aeropuertos :

Gran Canaria, España

Aeropuerto de Gran Canaria

latitud: 27-56N, longitud: 015-23W, altitud: 23 m

Observación

El informe se hizo hace 27 minutos, a las 19:00 UTC
Viento 19 kt del norte-noreste
Temperatura 28°C
Humedad 51%
Presión 1015 hPa
Visibilidad 10 km o más
sin nubes por debajo de 1500 m y sin presencia de cumulonimbus.

METAR: GCLP 171900Z 02019KT CAVOK 28/17 Q1015 NOSIG

Hora: 20:27 (19:27 UTC)

Pronóstico

El informe se hizo hace 5 horas y 27 minutos, a las 14:00 UTC
Pronóstico válido del 17 a las 15 UTC al 18 a las 15 UTC
Viento 23 kt del norte-noreste
Visibilidad 10 km o más
sin nubes por debajo de 1500 m y sin presencia de cumulonimbus.

TAF: GCLP 171400Z 1715/1815 03023KT CAVOK TX30/1813Z TN22/1805Z

Observaciones y pronósticos meteorológicos de más de 4000 aeropuertos (mensajes METAR y TAF).

Los puntos amarillos y rojos representan las estaciones disponibles.

Ponga el ratón en el punto deseado para ver el nombre de la estación.

Haga clic para ver las observaciones y los pronósticos meteorológicos.

Para cambiar el mapa : haga clic en los botones verdes con una cruz de color negro para hacer un zoom, en el botón verde con un guión para alejar o en las flechas verdes para mapas adyacentes.


METAR-TAF: